Main page
METAR-TAF:

METAR-TAF

Airports :

Honiara, Guadalcanal, Solomon Islands

Honiara International Airport

latitude: 09-25S, longitude: 160-03E, elevation: 8 m

Current weather observation

The report was made 15 minutes ago, at 02:00 UTC
Wind 16 kt from the East
Temperature 32°C
Humidity 67%
Pressure 1009 hPa
Visibility 10 km or more
Few clouds at a height of 2000 ft
haze

METAR: AGGH 270200Z 09016KT 9999 HZ FEW020 32/25 Q1009

Time: 13:15 (02:15 UTC)

Forecast

The report was made 3 hours and 26 minutes ago, at 22:49 UTC
Forecast valid from 27 at 00 UTC to 27 at 24 UTC
Wind 15 kt from the East
Visibility: 1011 m
Scattered clouds at a height of 1900 ft
Scattered clouds at a height of 3000 ft

TAF: AGGH 262249Z 2700/2724 09015KT 9999 SCT019 SCT030 T 30 31 28 25 Q 1011 1009 1009 1011

Weather observations and forecasts of more than 4000 airports (METAR and TAF reports).

The available stations are represented by yellow and red dots on the map.

Hover mouse over dot to see the name of the station.

Then click to see weather observations and forecasts.

To change the map : click on the green buttons with a black cross to zoom in, on the green button with a dash to zoom out, or on the green arrows for adjacent maps.


METAR-TAF: